Details From KNQA - Millington Muni
To KOLV - OLIVE BRANCH
Flight Number -
Tags generated
Created
Modified
Stats Distance 23 nm / 43 km
Max Altitude 0 ft / 0 m
Waypoints 2
Social Downloads 3
Likes 0
Share

Download

Looking for another format? Having issues loading an existing format? Contact us
Advertisement - Login to hide

Notes

Basic altitude profile: - Ascent Rate: 2500ft/min - Ascent Speed: 250kts - Cruise Altitude: 35000ft - Cruise Speed: 420kts - Descent Rate: 1500ft/min - Descent Speed: 250kts Options: - Use NATs: yes - Use PACOTS: yes - Use low airways: yes - Use high airways: no

Route

KNQA KOLV

ID Type Via Altitude (ft/m) Position (lat/lon) Dist (leg/tot) Name
O KNQA APT - 0 / 0 35.35664 / -89.87043 - / 0 nm Millington Muni
O KOLV APT - 0 / 0 34.97875 / -89.78685 23 / 23 nm OLIVE BRANCH

Altitude Profile

Advertisement - Login to hide

KNQA

Details ICAO KNQA (NQA)
Name Millington Muni
Region United States
Timezone America/Chicago (UTC-6.0)
Stats Elevation 320 ft / 98 m (AMSL)
Location 35.356600° -89.870400°
Runways 1
Magnetic Variation 1.744° W

METAR

KNQA 040450Z 23006KT 10SM BKN006 OVC012 06/05 A3016

Decode

TAF

Not found

Departure Runways

ID Width Length Bearing (true/mag) Surface Threshold Overrun Markings Lighting
04 200 ft / 61 m 8,006 ft / 2,440 m 38.77° / 40.51° ASPHALT 0 ft / 0 m 259 ft / 79 m PREC-APP EDGE THRESHOLD REIL-OMNI
22 200 ft / 61 m 8,006 ft / 2,440 m 218.78° / 220.52° ASPHALT 0 ft / 0 m 259 ft / 79 m PREC-APP EDGE THRESHOLD REIL-OMNI

KOLV

Details ICAO KOLV (OLV)
Name OLIVE BRANCH
Region United States
Timezone America/Chicago (UTC-6.0)
Stats Elevation 402 ft / 123 m (AMSL)
Location 34.978800° -89.786800°
Runways 1
Magnetic Variation 1.772° W

METAR

KOLV 040455Z AUTO 29004KT 2SM BR OVC004 05/05 A3015 RMK A01

Decode

TAF

Not found

Destination Runways

ID Width Length Bearing (true/mag) Surface Threshold Overrun Markings Lighting
18 100 ft / 30 m 6,015 ft / 1,833 m 179.54° / 181.31° ASPHALT 0 ft / 0 m 0 ft / 0 m PREC-APP EDGE THRESHOLD REIL-OMNI
36 100 ft / 30 m 6,015 ft / 1,833 m 359.54° / 1.31° ASPHALT 0 ft / 0 m 0 ft / 0 m APP EDGE THRESHOLD

Approach Navaids

Runway Type Ident Frequency Range Bearing (true/mag) Slope Elevation
18 DME IOLV 109.30 MHz 18 nm / 33 km - - 404 ft / 123 m (AMSL)
18 LOC-ILS IOLV 109.30 MHz 18 nm / 33 km 179.54° / 181.31 ° - 390 ft / 119 m (AMSL)
18 GS IOLV 109.30 MHz 10 nm / 19 km 180.08° / 181.85 ° 3.00° 399 ft / 122 m (AMSL)